sensor_id;sensor_type;location;lat;lon;timestamp;P1;durP1;ratioP1;P2;durP2;ratioP2
32236;SDS011;18726;44.732;10.550;2023-04-25T00:02:11;4.88;;;4.38;;
32236;SDS011;18726;44.732;10.550;2023-04-25T00:05:14;4.53;;;4.13;;
32236;SDS011;18726;44.732;10.550;2023-04-25T00:08:19;4.43;;;3.75;;
32236;SDS011;18726;44.732;10.550;2023-04-25T00:11:22;6.95;;;4.22;;
32236;SDS011;18726;44.732;10.550;2023-04-25T00:14:27;5.10;;;4.28;;
32236;SDS011;18726;44.732;10.550;2023-04-25T00:17:31;4.75;;;3.65;;
32236;SDS011;18726;44.732;10.550;2023-04-25T00:20:35;4.57;;;3.90;;
32236;SDS011;18726;44.732;10.550;2023-04-25T00:23:39;5.45;;;3.63;;
32236;SDS011;18726;44.732;10.550;2023-04-25T00:26:43;7.13;;;3.92;;
32236;SDS011;18726;44.732;10.550;2023-04-25T00:29:47;4.15;;;3.85;;
32236;SDS011;18726;44.732;10.550;2023-04-25T00:32:50;3.95;;;3.35;;
32236;SDS011;18726;44.732;10.550;2023-04-25T00:35:54;8.20;;;4.30;;
32236;SDS011;18726;44.732;10.550;2023-04-25T00:38:59;4.00;;;3.70;;
32236;SDS011;18726;44.732;10.550;2023-04-25T00:42:03;5.13;;;3.72;;
32236;SDS011;18726;44.732;10.550;2023-04-25T00:45:06;4.38;;;3.97;;
32236;SDS011;18726;44.732;10.550;2023-04-25T00:48:15;5.22;;;4.40;;
32236;SDS011;18726;44.732;10.550;2023-04-25T00:51:20;4.07;;;3.67;;
32236;SDS011;18726;44.732;10.550;2023-04-25T00:54:24;3.92;;;3.55;;
32236;SDS011;18726;44.732;10.550;2023-04-25T00:57:28;3.78;;;3.55;;
32236;SDS011;18726;44.732;10.550;2023-04-25T01:00:32;3.67;;;3.38;;
32236;SDS011;18726;44.732;10.550;2023-04-25T01:03:37;4.25;;;3.55;;
32236;SDS011;18726;44.732;10.550;2023-04-25T01:06:44;3.90;;;3.60;;
32236;SDS011;18726;44.732;10.550;2023-04-25T01:09:49;7.60;;;4.05;;
32236;SDS011;18726;44.732;10.550;2023-04-25T01:12:55;3.90;;;3.60;;
32236;SDS011;18726;44.732;10.550;2023-04-25T01:15:59;3.85;;;3.63;;
32236;SDS011;18726;44.732;10.550;2023-04-25T01:19:06;5.13;;;3.67;;
32236;SDS011;18726;44.732;10.550;2023-04-25T01:22:14;7.03;;;4.57;;
32236;SDS011;18726;44.732;10.550;2023-04-25T01:25:18;4.35;;;3.88;;
32236;SDS011;18726;44.732;10.550;2023-04-25T01:28:22;4.30;;;3.72;;
32236;SDS011;18726;44.732;10.550;2023-04-25T01:31:26;4.50;;;4.10;;
32236;SDS011;18726;44.732;10.550;2023-04-25T01:34:30;4.47;;;4.07;;
32236;SDS011;18726;44.732;10.550;2023-04-25T01:37:38;5.30;;;4.45;;
32236;SDS011;18726;44.732;10.550;2023-04-25T01:40:42;5.10;;;4.60;;
32236;SDS011;18726;44.732;10.550;2023-04-25T01:43:48;5.57;;;4.38;;
32236;SDS011;18726;44.732;10.550;2023-04-25T01:46:53;4.20;;;3.90;;
32236;SDS011;18726;44.732;10.550;2023-04-25T01:49:57;6.68;;;4.30;;
32236;SDS011;18726;44.732;10.550;2023-04-25T01:53:01;4.53;;;4.10;;
32236;SDS011;18726;44.732;10.550;2023-04-25T01:56:05;7.15;;;3.95;;
32236;SDS011;18726;44.732;10.550;2023-04-25T01:59:11;5.22;;;4.72;;
32236;SDS011;18726;44.732;10.550;2023-04-25T02:02:27;4.13;;;3.83;;
32236;SDS011;18726;44.732;10.550;2023-04-25T02:05:34;5.28;;;4.78;;
32236;SDS011;18726;44.732;10.550;2023-04-25T02:08:40;7.85;;;4.13;;
32236;SDS011;18726;44.732;10.550;2023-04-25T02:11:43;9.05;;;4.85;;
32236;SDS011;18726;44.732;10.550;2023-04-25T02:15:01;4.80;;;4.40;;
32236;SDS011;18726;44.732;10.550;2023-04-25T02:18:18;5.53;;;5.03;;
32236;SDS011;18726;44.732;10.550;2023-04-25T02:21:23;5.90;;;5.35;;
32236;SDS011;18726;44.732;10.550;2023-04-25T02:24:27;6.82;;;5.75;;
32236;SDS011;18726;44.732;10.550;2023-04-25T02:27:33;5.00;;;4.60;;
32236;SDS011;18726;44.732;10.550;2023-04-25T02:30:37;5.32;;;4.85;;
32236;SDS011;18726;44.732;10.550;2023-04-25T02:33:42;5.68;;;4.75;;
32236;SDS011;18726;44.732;10.550;2023-04-25T02:36:47;4.97;;;4.45;;
32236;SDS011;18726;44.732;10.550;2023-04-25T02:39:54;5.00;;;4.45;;
32236;SDS011;18726;44.732;10.550;2023-04-25T02:42:58;4.97;;;4.57;;
32236;SDS011;18726;44.732;10.550;2023-04-25T02:46:03;5.93;;;4.72;;
32236;SDS011;18726;44.732;10.550;2023-04-25T02:49:07;6.53;;;5.18;;
32236;SDS011;18726;44.732;10.550;2023-04-25T02:52:11;5.97;;;5.43;;
32236;SDS011;18726;44.732;10.550;2023-04-25T02:58:31;5.57;;;5.07;;
32236;SDS011;18726;44.732;10.550;2023-04-25T03:01:35;5.38;;;4.97;;
32236;SDS011;18726;44.732;10.550;2023-04-25T03:04:39;7.38;;;5.25;;
32236;SDS011;18726;44.732;10.550;2023-04-25T03:07:43;5.07;;;4.65;;
32236;SDS011;18726;44.732;10.550;2023-04-25T03:10:48;7.25;;;4.22;;
32236;SDS011;18726;44.732;10.550;2023-04-25T03:13:53;5.57;;;4.28;;
32236;SDS011;18726;44.732;10.550;2023-04-25T03:16:57;6.43;;;5.82;;
32236;SDS011;18726;44.732;10.550;2023-04-25T03:20:01;5.22;;;4.75;;
32236;SDS011;18726;44.732;10.550;2023-04-25T03:23:05;10.32;;;5.30;;
32236;SDS011;18726;44.732;10.550;2023-04-25T03:26:09;6.78;;;5.85;;
32236;SDS011;18726;44.732;10.550;2023-04-25T03:29:13;6.78;;;5.32;;
32236;SDS011;18726;44.732;10.550;2023-04-25T03:32:19;5.82;;;5.28;;
32236;SDS011;18726;44.732;10.550;2023-04-25T03:35:23;8.00;;;5.95;;
32236;SDS011;18726;44.732;10.550;2023-04-25T03:38:28;6.63;;;5.53;;
32236;SDS011;18726;44.732;10.550;2023-04-25T03:41:31;6.47;;;5.97;;
32236;SDS011;18726;44.732;10.550;2023-04-25T03:44:40;9.75;;;8.57;;
32236;SDS011;18726;44.732;10.550;2023-04-25T03:47:44;8.93;;;8.18;;
32236;SDS011;18726;44.732;10.550;2023-04-25T03:50:48;8.68;;;7.57;;
32236;SDS011;18726;44.732;10.550;2023-04-25T03:53:52;8.70;;;7.90;;
32236;SDS011;18726;44.732;10.550;2023-04-25T03:57:16;7.57;;;6.88;;
32236;SDS011;18726;44.732;10.550;2023-04-25T04:00:20;7.35;;;6.18;;
32236;SDS011;18726;44.732;10.550;2023-04-25T04:03:28;7.50;;;6.80;;
32236;SDS011;18726;44.732;10.550;2023-04-25T04:06:33;8.45;;;6.93;;
32236;SDS011;18726;44.732;10.550;2023-04-25T04:10:00;7.88;;;7.05;;
32236;SDS011;18726;44.732;10.550;2023-04-25T04:13:10;7.50;;;5.93;;
32236;SDS011;18726;44.732;10.550;2023-04-25T04:16:13;6.97;;;5.72;;
32236;SDS011;18726;44.732;10.550;2023-04-25T04:19:17;6.65;;;5.70;;
32236;SDS011;18726;44.732;10.550;2023-04-25T04:22:32;5.43;;;4.93;;
32236;SDS011;18726;44.732;10.550;2023-04-25T04:25:40;9.27;;;5.85;;
32236;SDS011;18726;44.732;10.550;2023-04-25T04:28:59;5.57;;;4.50;;
32236;SDS011;18726;44.732;10.550;2023-04-25T04:32:19;5.05;;;4.63;;
32236;SDS011;18726;44.732;10.550;2023-04-25T04:35:23;5.38;;;4.85;;
32236;SDS011;18726;44.732;10.550;2023-04-25T04:38:28;5.00;;;4.57;;
32236;SDS011;18726;44.732;10.550;2023-04-25T04:41:35;4.82;;;4.50;;
32236;SDS011;18726;44.732;10.550;2023-04-25T04:44:46;6.03;;;4.70;;
32236;SDS011;18726;44.732;10.550;2023-04-25T04:48:02;4.53;;;4.13;;
32236;SDS011;18726;44.732;10.550;2023-04-25T04:51:31;5.45;;;4.95;;
32236;SDS011;18726;44.732;10.550;2023-04-25T04:55:07;5.55;;;4.95;;
32236;SDS011;18726;44.732;10.550;2023-04-25T05:01:47;5.40;;;4.90;;
32236;SDS011;18726;44.732;10.550;2023-04-25T05:05:09;6.65;;;6.03;;
32236;SDS011;18726;44.732;10.550;2023-04-25T05:08:28;6.78;;;5.70;;
32236;SDS011;18726;44.732;10.550;2023-04-25T05:12:10;6.50;;;6.00;;
32236;SDS011;18726;44.732;10.550;2023-04-25T05:15:14;7.40;;;5.90;;
32236;SDS011;18726;44.732;10.550;2023-04-25T05:18:37;5.30;;;4.80;;
32236;SDS011;18726;44.732;10.550;2023-04-25T05:21:54;5.97;;;5.40;;
32236;SDS011;18726;44.732;10.550;2023-04-25T05:25:12;6.20;;;5.60;;
32236;SDS011;18726;44.732;10.550;2023-04-25T05:28:48;6.50;;;5.90;;
32236;SDS011;18726;44.732;10.550;2023-04-25T05:32:14;6.32;;;5.80;;
32236;SDS011;18726;44.732;10.550;2023-04-25T05:35:18;6.45;;;5.85;;
32236;SDS011;18726;44.732;10.550;2023-04-25T05:38:25;7.85;;;6.13;;
32236;SDS011;18726;44.732;10.550;2023-04-25T05:41:44;6.65;;;6.00;;
32236;SDS011;18726;44.732;10.550;2023-04-25T05:45:20;6.00;;;5.50;;
32236;SDS011;18726;44.732;10.550;2023-04-25T05:48:42;8.98;;;5.95;;
32236;SDS011;18726;44.732;10.550;2023-04-25T05:51:58;5.60;;;5.03;;
32236;SDS011;18726;44.732;10.550;2023-04-25T05:55:25;9.20;;;6.43;;
32236;SDS011;18726;44.732;10.550;2023-04-25T05:58:29;5.97;;;5.43;;
32236;SDS011;18726;44.732;10.550;2023-04-25T06:01:33;5.88;;;5.38;;
32236;SDS011;18726;44.732;10.550;2023-04-25T06:04:37;7.45;;;6.63;;
32236;SDS011;18726;44.732;10.550;2023-04-25T06:07:42;6.65;;;6.05;;
32236;SDS011;18726;44.732;10.550;2023-04-25T06:10:46;6.25;;;5.65;;
32236;SDS011;18726;44.732;10.550;2023-04-25T06:13:51;6.18;;;5.63;;
32236;SDS011;18726;44.732;10.550;2023-04-25T06:16:55;7.15;;;6.45;;
32236;SDS011;18726;44.732;10.550;2023-04-25T06:19:59;7.90;;;5.80;;
32236;SDS011;18726;44.732;10.550;2023-04-25T06:23:03;7.50;;;6.15;;
32236;SDS011;18726;44.732;10.550;2023-04-25T06:26:27;7.28;;;6.13;;
32236;SDS011;18726;44.732;10.550;2023-04-25T06:29:31;6.45;;;5.95;;
32236;SDS011;18726;44.732;10.550;2023-04-25T06:32:35;11.30;;;6.80;;
32236;SDS011;18726;44.732;10.550;2023-04-25T06:35:39;9.65;;;6.55;;
32236;SDS011;18726;44.732;10.550;2023-04-25T06:38:45;9.23;;;6.15;;
32236;SDS011;18726;44.732;10.550;2023-04-25T06:41:49;8.05;;;6.28;;
32236;SDS011;18726;44.732;10.550;2023-04-25T06:45:12;6.53;;;5.40;;
32236;SDS011;18726;44.732;10.550;2023-04-25T06:48:18;8.05;;;6.68;;
32236;SDS011;18726;44.732;10.550;2023-04-25T06:51:22;8.00;;;5.45;;
32236;SDS011;18726;44.732;10.550;2023-04-25T06:54:29;8.85;;;6.07;;
32236;SDS011;18726;44.732;10.550;2023-04-25T06:57:41;7.45;;;6.38;;
32236;SDS011;18726;44.732;10.550;2023-04-25T07:01:04;6.47;;;5.88;;
32236;SDS011;18726;44.732;10.550;2023-04-25T07:04:08;7.85;;;5.80;;
32236;SDS011;18726;44.732;10.550;2023-04-25T07:07:17;7.10;;;5.20;;
32236;SDS011;18726;44.732;10.550;2023-04-25T07:10:26;6.68;;;6.00;;
32236;SDS011;18726;44.732;10.550;2023-04-25T07:13:30;7.03;;;6.40;;
32236;SDS011;18726;44.732;10.550;2023-04-25T07:16:34;10.13;;;7.30;;
32236;SDS011;18726;44.732;10.550;2023-04-25T07:19:39;9.15;;;7.05;;
32236;SDS011;18726;44.732;10.550;2023-04-25T07:22:44;7.93;;;7.13;;
32236;SDS011;18726;44.732;10.550;2023-04-25T07:25:47;8.88;;;7.50;;
32236;SDS011;18726;44.732;10.550;2023-04-25T07:28:57;8.30;;;7.50;;
32236;SDS011;18726;44.732;10.550;2023-04-25T07:32:02;8.48;;;7.20;;
32236;SDS011;18726;44.732;10.550;2023-04-25T07:35:06;8.25;;;7.30;;
32236;SDS011;18726;44.732;10.550;2023-04-25T07:38:11;13.63;;;7.38;;
32236;SDS011;18726;44.732;10.550;2023-04-25T07:41:15;10.32;;;7.15;;
32236;SDS011;18726;44.732;10.550;2023-04-25T07:44:19;10.85;;;7.30;;
32236;SDS011;18726;44.732;10.550;2023-04-25T07:47:23;8.30;;;7.22;;
32236;SDS011;18726;44.732;10.550;2023-04-25T07:50:29;8.73;;;7.43;;
32236;SDS011;18726;44.732;10.550;2023-04-25T07:53:32;9.43;;;7.43;;
32236;SDS011;18726;44.732;10.550;2023-04-25T07:56:42;8.32;;;7.07;;
32236;SDS011;18726;44.732;10.550;2023-04-25T07:59:46;5.50;;;5.00;;
32236;SDS011;18726;44.732;10.550;2023-04-25T08:02:50;4.57;;;4.18;;
32236;SDS011;18726;44.732;10.550;2023-04-25T08:05:54;3.22;;;2.92;;
32236;SDS011;18726;44.732;10.550;2023-04-25T08:08:59;3.83;;;3.50;;
32236;SDS011;18726;44.732;10.550;2023-04-25T08:12:10;3.50;;;3.20;;
32236;SDS011;18726;44.732;10.550;2023-04-25T08:15:14;3.45;;;3.20;;
32236;SDS011;18726;44.732;10.550;2023-04-25T08:18:19;7.55;;;3.50;;
32236;SDS011;18726;44.732;10.550;2023-04-25T08:21:25;5.32;;;2.40;;
32236;SDS011;18726;44.732;10.550;2023-04-25T08:24:31;4.45;;;1.98;;
32236;SDS011;18726;44.732;10.550;2023-04-25T08:27:35;2.47;;;2.30;;
32236;SDS011;18726;44.732;10.550;2023-04-25T08:30:43;2.33;;;2.22;;
32236;SDS011;18726;44.732;10.550;2023-04-25T08:33:52;1.98;;;1.88;;
32236;SDS011;18726;44.732;10.550;2023-04-25T08:37:02;4.78;;;2.17;;
32236;SDS011;18726;44.732;10.550;2023-04-25T08:40:16;3.83;;;2.20;;
32236;SDS011;18726;44.732;10.550;2023-04-25T08:43:42;2.42;;;2.22;;
32236;SDS011;18726;44.732;10.550;2023-04-25T08:46:47;2.35;;;2.00;;
32236;SDS011;18726;44.732;10.550;2023-04-25T08:50:06;2.00;;;1.90;;
32236;SDS011;18726;44.732;10.550;2023-04-25T08:53:10;3.80;;;2.25;;
32236;SDS011;18726;44.732;10.550;2023-04-25T08:56:22;2.35;;;2.10;;
32236;SDS011;18726;44.732;10.550;2023-04-25T08:59:27;1.80;;;1.70;;
32236;SDS011;18726;44.732;10.550;2023-04-25T09:02:32;1.70;;;1.60;;
32236;SDS011;18726;44.732;10.550;2023-04-25T09:05:36;1.73;;;1.63;;
32236;SDS011;18726;44.732;10.550;2023-04-25T09:08:40;1.80;;;1.70;;
32236;SDS011;18726;44.732;10.550;2023-04-25T09:11:44;2.05;;;1.95;;
32236;SDS011;18726;44.732;10.550;2023-04-25T09:15:00;2.00;;;1.90;;
32236;SDS011;18726;44.732;10.550;2023-04-25T09:18:26;1.92;;;1.83;;
32236;SDS011;18726;44.732;10.550;2023-04-25T09:21:30;2.35;;;1.95;;
32236;SDS011;18726;44.732;10.550;2023-04-25T09:24:38;1.77;;;1.67;;
32236;SDS011;18726;44.732;10.550;2023-04-25T09:27:51;4.13;;;1.83;;
32236;SDS011;18726;44.732;10.550;2023-04-25T09:31:01;3.70;;;2.13;;
32236;SDS011;18726;44.732;10.550;2023-04-25T09:34:18;3.40;;;1.90;;
32236;SDS011;18726;44.732;10.550;2023-04-25T09:37:30;2.08;;;1.98;;
32236;SDS011;18726;44.732;10.550;2023-04-25T09:40:43;1.80;;;1.70;;
32236;SDS011;18726;44.732;10.550;2023-04-25T09:43:57;2.33;;;2.13;;
32236;SDS011;18726;44.732;10.550;2023-04-25T09:47:08;2.17;;;2.00;;
32236;SDS011;18726;44.732;10.550;2023-04-25T09:50:14;2.08;;;1.98;;
32236;SDS011;18726;44.732;10.550;2023-04-25T09:53:22;2.28;;;2.15;;
32236;SDS011;18726;44.732;10.550;2023-04-25T09:56:40;3.13;;;2.30;;
32236;SDS011;18726;44.732;10.550;2023-04-25T10:02:56;2.55;;;2.20;;
32236;SDS011;18726;44.732;10.550;2023-04-25T10:06:23;4.43;;;2.33;;
32236;SDS011;18726;44.732;10.550;2023-04-25T10:09:29;4.50;;;2.55;;
32236;SDS011;18726;44.732;10.550;2023-04-25T10:12:36;2.92;;;2.65;;
32236;SDS011;18726;44.732;10.550;2023-04-25T10:15:42;5.20;;;2.92;;
32236;SDS011;18726;44.732;10.550;2023-04-25T10:18:46;2.50;;;2.33;;
32236;SDS011;18726;44.732;10.550;2023-04-25T10:25:26;2.33;;;2.20;;
32236;SDS011;18726;44.732;10.550;2023-04-25T10:28:30;2.42;;;2.22;;
32236;SDS011;18726;44.732;10.550;2023-04-25T10:32:04;3.00;;;2.80;;
32236;SDS011;18726;44.732;10.550;2023-04-25T10:38:20;2.70;;;2.50;;
32236;SDS011;18726;44.732;10.550;2023-04-25T10:41:24;4.75;;;3.20;;
32236;SDS011;18726;44.732;10.550;2023-04-25T10:44:28;5.47;;;2.35;;
32236;SDS011;18726;44.732;10.550;2023-04-25T10:47:36;2.60;;;2.40;;
32236;SDS011;18726;44.732;10.550;2023-04-25T10:50:46;2.83;;;2.63;;
32236;SDS011;18726;44.732;10.550;2023-04-25T10:54:02;3.33;;;3.03;;
32236;SDS011;18726;44.732;10.550;2023-04-25T10:57:25;2.58;;;2.38;;
32236;SDS011;18726;44.732;10.550;2023-04-25T11:00:45;5.00;;;2.47;;
32236;SDS011;18726;44.732;10.550;2023-04-25T11:03:48;3.03;;;2.83;;
32236;SDS011;18726;44.732;10.550;2023-04-25T11:07:05;5.28;;;3.22;;
32236;SDS011;18726;44.732;10.550;2023-04-25T11:13:22;3.67;;;2.53;;
32236;SDS011;18726;44.732;10.550;2023-04-25T11:16:31;3.72;;;2.42;;
32236;SDS011;18726;44.732;10.550;2023-04-25T11:19:35;4.32;;;2.55;;
32236;SDS011;18726;44.732;10.550;2023-04-25T11:22:39;2.80;;;2.50;;
32236;SDS011;18726;44.732;10.550;2023-04-25T11:25:46;3.20;;;2.58;;
32236;SDS011;18726;44.732;10.550;2023-04-25T11:28:50;2.88;;;2.65;;
32236;SDS011;18726;44.732;10.550;2023-04-25T11:31:54;4.18;;;2.78;;
32236;SDS011;18726;44.732;10.550;2023-04-25T11:35:01;3.33;;;3.03;;
32236;SDS011;18726;44.732;10.550;2023-04-25T11:38:05;3.80;;;2.85;;
32236;SDS011;18726;44.732;10.550;2023-04-25T11:41:09;2.75;;;2.55;;
32236;SDS011;18726;44.732;10.550;2023-04-25T11:44:16;2.67;;;2.47;;
32236;SDS011;18726;44.732;10.550;2023-04-25T11:47:27;2.90;;;2.60;;
32236;SDS011;18726;44.732;10.550;2023-04-25T11:50:32;5.32;;;2.50;;
32236;SDS011;18726;44.732;10.550;2023-04-25T11:53:35;1.98;;;1.88;;
32236;SDS011;18726;44.732;10.550;2023-04-25T11:56:42;4.25;;;2.55;;
32236;SDS011;18726;44.732;10.550;2023-04-25T11:59:47;2.75;;;2.55;;
32236;SDS011;18726;44.732;10.550;2023-04-25T12:02:51;4.85;;;3.17;;
32236;SDS011;18726;44.732;10.550;2023-04-25T12:06:01;2.85;;;2.65;;
32236;SDS011;18726;44.732;10.550;2023-04-25T12:09:10;3.95;;;2.88;;
32236;SDS011;18726;44.732;10.550;2023-04-25T12:12:16;2.97;;;2.78;;
32236;SDS011;18726;44.732;10.550;2023-04-25T12:15:24;3.10;;;2.90;;
32236;SDS011;18726;44.732;10.550;2023-04-25T12:18:29;5.18;;;4.05;;
32236;SDS011;18726;44.732;10.550;2023-04-25T12:21:33;3.97;;;2.88;;
32236;SDS011;18726;44.732;10.550;2023-04-25T12:24:37;3.42;;;3.13;;
32236;SDS011;18726;44.732;10.550;2023-04-25T12:27:41;2.97;;;2.78;;
32236;SDS011;18726;44.732;10.550;2023-04-25T12:34:10;3.47;;;3.17;;
32236;SDS011;18726;44.732;10.550;2023-04-25T12:37:14;4.57;;;3.17;;
32236;SDS011;18726;44.732;10.550;2023-04-25T12:40:18;4.53;;;3.80;;
32236;SDS011;18726;44.732;10.550;2023-04-25T12:43:22;3.38;;;3.05;;
32236;SDS011;18726;44.732;10.550;2023-04-25T12:46:25;3.45;;;2.75;;
32236;SDS011;18726;44.732;10.550;2023-04-25T12:49:29;2.67;;;2.47;;
32236;SDS011;18726;44.732;10.550;2023-04-25T12:52:33;5.53;;;3.00;;
32236;SDS011;18726;44.732;10.550;2023-04-25T12:55:36;6.07;;;3.03;;
32236;SDS011;18726;44.732;10.550;2023-04-25T13:01:54;2.70;;;2.38;;
32236;SDS011;18726;44.732;10.550;2023-04-25T13:04:59;2.85;;;2.38;;
32236;SDS011;18726;44.732;10.550;2023-04-25T13:08:03;3.33;;;2.70;;
32236;SDS011;18726;44.732;10.550;2023-04-25T13:11:07;3.25;;;2.67;;
32236;SDS011;18726;44.732;10.550;2023-04-25T13:14:11;3.25;;;2.80;;
32236;SDS011;18726;44.732;10.550;2023-04-25T13:17:14;2.70;;;2.50;;
32236;SDS011;18726;44.732;10.550;2023-04-25T13:20:18;2.67;;;2.47;;
32236;SDS011;18726;44.732;10.550;2023-04-25T13:23:26;4.63;;;2.15;;
32236;SDS011;18726;44.732;10.550;2023-04-25T13:26:31;3.65;;;3.00;;
32236;SDS011;18726;44.732;10.550;2023-04-25T13:29:35;2.78;;;2.53;;
32236;SDS011;18726;44.732;10.550;2023-04-25T13:32:41;3.38;;;2.80;;
32236;SDS011;18726;44.732;10.550;2023-04-25T13:35:44;2.78;;;2.58;;
32236;SDS011;18726;44.732;10.550;2023-04-25T13:38:56;3.33;;;2.58;;
32236;SDS011;18726;44.732;10.550;2023-04-25T13:42:00;2.63;;;2.45;;
32236;SDS011;18726;44.732;10.550;2023-04-25T13:45:05;2.50;;;2.30;;
32236;SDS011;18726;44.732;10.550;2023-04-25T13:48:10;2.58;;;2.45;;
32236;SDS011;18726;44.732;10.550;2023-04-25T13:51:14;2.50;;;2.30;;
32236;SDS011;18726;44.732;10.550;2023-04-25T13:54:20;4.03;;;2.75;;
32236;SDS011;18726;44.732;10.550;2023-04-25T13:57:24;2.35;;;2.20;;
32236;SDS011;18726;44.732;10.550;2023-04-25T14:00:28;2.65;;;2.45;;
32236;SDS011;18726;44.732;10.550;2023-04-25T14:03:32;3.05;;;2.60;;
32236;SDS011;18726;44.732;10.550;2023-04-25T14:06:36;2.22;;;2.10;;
32236;SDS011;18726;44.732;10.550;2023-04-25T14:09:40;2.92;;;2.65;;
32236;SDS011;18726;44.732;10.550;2023-04-25T14:12:43;6.25;;;3.72;;
32236;SDS011;18726;44.732;10.550;2023-04-25T14:15:47;3.17;;;2.88;;
32236;SDS011;18726;44.732;10.550;2023-04-25T14:18:50;2.92;;;2.72;;
32236;SDS011;18726;44.732;10.550;2023-04-25T14:21:54;5.25;;;2.92;;
32236;SDS011;18726;44.732;10.550;2023-04-25T14:24:58;2.95;;;2.75;;
32236;SDS011;18726;44.732;10.550;2023-04-25T14:28:02;8.52;;;4.07;;
32236;SDS011;18726;44.732;10.550;2023-04-25T14:31:06;3.47;;;3.20;;
32236;SDS011;18726;44.732;10.550;2023-04-25T14:34:10;3.00;;;2.28;;
32236;SDS011;18726;44.732;10.550;2023-04-25T14:37:14;10.85;;;2.45;;
32236;SDS011;18726;44.732;10.550;2023-04-25T14:40:18;2.85;;;2.65;;
32236;SDS011;18726;44.732;10.550;2023-04-25T14:43:25;3.03;;;2.70;;
32236;SDS011;18726;44.732;10.550;2023-04-25T14:46:28;5.80;;;3.05;;
32236;SDS011;18726;44.732;10.550;2023-04-25T14:49:32;3.17;;;2.75;;
32236;SDS011;18726;44.732;10.550;2023-04-25T14:52:36;3.78;;;3.47;;
32236;SDS011;18726;44.732;10.550;2023-04-25T14:55:40;2.88;;;2.67;;
32236;SDS011;18726;44.732;10.550;2023-04-25T14:58:44;3.33;;;3.03;;
32236;SDS011;18726;44.732;10.550;2023-04-25T15:01:48;3.65;;;3.03;;
32236;SDS011;18726;44.732;10.550;2023-04-25T15:04:53;2.88;;;2.65;;
32236;SDS011;18726;44.732;10.550;2023-04-25T15:07:57;3.33;;;3.10;;
32236;SDS011;18726;44.732;10.550;2023-04-25T15:11:01;4.68;;;2.80;;
32236;SDS011;18726;44.732;10.550;2023-04-25T15:14:06;3.03;;;2.83;;
32236;SDS011;18726;44.732;10.550;2023-04-25T15:17:09;5.63;;;2.67;;
32236;SDS011;18726;44.732;10.550;2023-04-25T15:20:13;5.35;;;3.05;;
32236;SDS011;18726;44.732;10.550;2023-04-25T15:23:17;3.35;;;2.75;;
32236;SDS011;18726;44.732;10.550;2023-04-25T15:26:22;2.38;;;2.20;;
32236;SDS011;18726;44.732;10.550;2023-04-25T15:29:26;3.28;;;2.60;;
32236;SDS011;18726;44.732;10.550;2023-04-25T15:32:30;2.70;;;2.50;;
32236;SDS011;18726;44.732;10.550;2023-04-25T15:35:33;2.65;;;2.45;;
32236;SDS011;18726;44.732;10.550;2023-04-25T15:38:37;7.75;;;2.70;;
32236;SDS011;18726;44.732;10.550;2023-04-25T15:41:41;5.20;;;2.50;;
32236;SDS011;18726;44.732;10.550;2023-04-25T15:44:44;3.13;;;2.40;;
32236;SDS011;18726;44.732;10.550;2023-04-25T15:47:48;5.57;;;2.40;;
32236;SDS011;18726;44.732;10.550;2023-04-25T15:50:53;5.45;;;2.40;;
32236;SDS011;18726;44.732;10.550;2023-04-25T15:53:57;9.88;;;2.67;;
32236;SDS011;18726;44.732;10.550;2023-04-25T15:57:00;7.45;;;2.67;;
32236;SDS011;18726;44.732;10.550;2023-04-25T16:00:04;3.28;;;2.78;;
32236;SDS011;18726;44.732;10.550;2023-04-25T16:03:20;3.25;;;2.53;;
32236;SDS011;18726;44.732;10.550;2023-04-25T16:06:25;2.78;;;2.42;;
32236;SDS011;18726;44.732;10.550;2023-04-25T16:09:29;4.53;;;3.45;;
32236;SDS011;18726;44.732;10.550;2023-04-25T16:12:34;6.60;;;2.75;;
32236;SDS011;18726;44.732;10.550;2023-04-25T16:15:38;3.13;;;2.67;;
32236;SDS011;18726;44.732;10.550;2023-04-25T16:18:42;3.30;;;3.00;;
32236;SDS011;18726;44.732;10.550;2023-04-25T16:21:46;2.97;;;2.70;;
32236;SDS011;18726;44.732;10.550;2023-04-25T16:24:50;2.92;;;2.67;;
32236;SDS011;18726;44.732;10.550;2023-04-25T16:27:54;4.22;;;2.67;;
32236;SDS011;18726;44.732;10.550;2023-04-25T16:30:58;3.92;;;3.30;;
32236;SDS011;18726;44.732;10.550;2023-04-25T16:34:03;3.35;;;2.90;;
32236;SDS011;18726;44.732;10.550;2023-04-25T16:37:07;4.45;;;3.20;;
32236;SDS011;18726;44.732;10.550;2023-04-25T16:40:11;3.83;;;2.80;;
32236;SDS011;18726;44.732;10.550;2023-04-25T16:43:15;7.75;;;3.10;;
32236;SDS011;18726;44.732;10.550;2023-04-25T16:46:22;3.42;;;3.13;;
32236;SDS011;18726;44.732;10.550;2023-04-25T16:49:26;4.97;;;3.08;;
32236;SDS011;18726;44.732;10.550;2023-04-25T16:52:30;7.90;;;3.30;;
32236;SDS011;18726;44.732;10.550;2023-04-25T16:55:34;2.70;;;2.50;;
32236;SDS011;18726;44.732;10.550;2023-04-25T16:58:38;5.50;;;3.20;;
32236;SDS011;18726;44.732;10.550;2023-04-25T17:01:42;5.35;;;3.03;;
32236;SDS011;18726;44.732;10.550;2023-04-25T17:04:46;5.15;;;3.20;;
32236;SDS011;18726;44.732;10.550;2023-04-25T17:07:49;7.20;;;2.92;;
32236;SDS011;18726;44.732;10.550;2023-04-25T17:10:54;4.70;;;2.53;;
32236;SDS011;18726;44.732;10.550;2023-04-25T17:13:58;3.08;;;2.47;;
32236;SDS011;18726;44.732;10.550;2023-04-25T17:17:02;2.92;;;2.50;;
32236;SDS011;18726;44.732;10.550;2023-04-25T17:20:06;3.22;;;2.40;;
32236;SDS011;18726;44.732;10.550;2023-04-25T17:23:11;5.03;;;2.53;;
32236;SDS011;18726;44.732;10.550;2023-04-25T17:26:15;2.90;;;2.45;;
32236;SDS011;18726;44.732;10.550;2023-04-25T17:29:19;2.08;;;1.98;;
32236;SDS011;18726;44.732;10.550;2023-04-25T17:32:26;4.00;;;2.97;;
32236;SDS011;18726;44.732;10.550;2023-04-25T17:35:30;3.13;;;2.85;;
32236;SDS011;18726;44.732;10.550;2023-04-25T17:38:36;2.55;;;2.20;;
32236;SDS011;18726;44.732;10.550;2023-04-25T17:41:41;2.42;;;2.22;;
32236;SDS011;18726;44.732;10.550;2023-04-25T17:44:44;2.40;;;2.20;;
32236;SDS011;18726;44.732;10.550;2023-04-25T17:47:48;14.90;;;2.67;;
32236;SDS011;18726;44.732;10.550;2023-04-25T17:50:51;5.72;;;2.20;;
32236;SDS011;18726;44.732;10.550;2023-04-25T17:53:55;2.20;;;2.10;;
32236;SDS011;18726;44.732;10.550;2023-04-25T17:56:59;3.72;;;2.80;;
32236;SDS011;18726;44.732;10.550;2023-04-25T18:00:03;4.30;;;2.38;;
32236;SDS011;18726;44.732;10.550;2023-04-25T18:06:19;2.78;;;2.22;;
32236;SDS011;18726;44.732;10.550;2023-04-25T18:09:23;2.42;;;2.22;;
32236;SDS011;18726;44.732;10.550;2023-04-25T18:12:27;2.40;;;2.30;;
32236;SDS011;18726;44.732;10.550;2023-04-25T18:15:31;2.70;;;2.50;;
32236;SDS011;18726;44.732;10.550;2023-04-25T18:18:34;2.72;;;2.50;;
32236;SDS011;18726;44.732;10.550;2023-04-25T18:21:42;3.97;;;2.88;;
32236;SDS011;18726;44.732;10.550;2023-04-25T18:24:46;4.32;;;3.60;;
32236;SDS011;18726;44.732;10.550;2023-04-25T18:27:49;3.00;;;2.80;;
32236;SDS011;18726;44.732;10.550;2023-04-25T18:31:01;3.44;;;3.16;;
32236;SDS011;18726;44.732;10.550;2023-04-25T18:34:06;3.00;;;2.80;;
32236;SDS011;18726;44.732;10.550;2023-04-25T18:37:10;3.03;;;2.13;;
32236;SDS011;18726;44.732;10.550;2023-04-25T18:40:16;2.85;;;2.65;;
32236;SDS011;18726;44.732;10.550;2023-04-25T18:43:20;2.80;;;2.38;;
32236;SDS011;18726;44.732;10.550;2023-04-25T18:46:24;2.50;;;2.30;;
32236;SDS011;18726;44.732;10.550;2023-04-25T18:49:27;2.90;;;2.70;;
32236;SDS011;18726;44.732;10.550;2023-04-25T18:52:30;6.75;;;6.15;;
32236;SDS011;18726;44.732;10.550;2023-04-25T18:55:34;5.00;;;4.57;;
32236;SDS011;18726;44.732;10.550;2023-04-25T18:58:38;7.90;;;5.55;;